Archival Weather

Norman Y Mineta San Jose Intl

San Jose, California (KSJC)

Report from: Saturday, February 17, 2024 10:53 PM PST
Current time: Monday, June 24, 2024 2:06 AM PDT

Current weather – Weather history – Daily summaries
Weather forecast

Temperature12.8°C (55.0°F)
Dew point10.6°C (51.1°F)
Winds 8 kts (4.1 m/s, 9.2 mph) East-Southeast (120°)
Visibility10 mi. (16.1 km)
Clouds Few clouds 1,600 ft. (488 m)
Scattered clouds 3,000 ft. (914 m)
Ceiling: Broken clouds 4,500 ft. (1,372 m)
Altimeter29.97 in.Hg (1015 mB)
Precipitiation0.01 in. (0 mm)
Precip. events Rain ended 6:34 AM
Relative humidity86 %
Density altitude-130 ft. (-40 m)
Sea-level pressure101.5 kPa (1015 mB, 29.96 in.Hg)
Remarks Automated weather observing station with precipitation discriminator
Flight conditions Visual Meteorological Conditions
Raw dataKSJC 180653Z 12008KT 10SM FEW016 SCT030 BKN045 13/11 A2997 RMK AO2 RAE34 SLP147 P0001 T01280106
An error has occurred. This application may no longer respond until reloaded. Reload 🗙